LFLLLIPZ

Guest
Details From LFLL - Lyon Saint Exupery
To LIPZ - Venezia Tessera
Flight Number -
Tags Generated
Created
Modified
Stats Distance 305 nm / 564 km
Max Altitude 0 ft / 0 m
Waypoints 3
Social Downloads 1
Likes 0
Share VATSIM

Download

Looking for another format? Having issues loading an existing format? Contact us
Advertisement - Login to hide

Notes

Generated

Route

LFLL LAPAB LIPZ

ID Type Via Altitude Latitude Longitude Leg Dist Tot Dist Heading (true) Name
O LFLL APT - 0 ft / 0 m 45.73499˚ 5.09188˚ - 0 nm - Lyon Saint Exupery
LAPAB FIX - 0 ft / 0 m 45.52944˚ 11.97167˚ 289 nm 289 nm 90° / 95° -
O LIPZ APT - 0 ft / 0 m 45.49516˚ 12.33556˚ 15 nm 304 nm 98° / 98° -

Altitude Profile

Advertisement - Login to hide

Weather


0- 5 10 15 20 25 30 35+ Temperature / ° C

Clouds and Precipitation
Forecast for 2018-05-20 12:00 UTC. Updated 3 hours ago

Ground ~20,000 ft ~40,000 ft Winds

LFLL

Details ICAO LFLL (LYS)
Name Lyon Saint Exupery
Region France
Timezone Europe/Paris (UTC+2.0)
Stats Elevation 820 ft / 250 m (AMSL)
Location 45.725812° 5.090748°
Runways 2
Magnetic Variation 1.540° E

METAR

LFLL 201415Z 02008KT 9999 FEW050 23/09 Q1014 NOSIG

Decode

TAF

TAF LFLL 201100Z 2012/2118 36006KT CAVOK BECMG 2110/2112 18005KT PROB30 TEMPO 2115/2118 5000 -TSRA SCT045CB BKN050

Decode

Departure Runways

ID Width Length Bearing (true) Bearing (mag) Surface Threshold Offset Overrun Length
18L 148 ft / 45 m 8,798 ft / 2,682 m 175.13° 173.59° Asphalt 33 ft / 10 m 52 ft / 16 m
18R 148 ft / 45 m 13,149 ft / 4,008 m 175.14° 173.60° Asphalt 16 ft / 5 m 203 ft / 62 m
36L 148 ft / 45 m 13,149 ft / 4,008 m 355.15° 353.61° Asphalt 36 ft / 11 m 151 ft / 46 m
36R 148 ft / 45 m 8,798 ft / 2,682 m 355.13° 353.59° Asphalt 26 ft / 8 m 52 ft / 16 m

LIPZ

Details ICAO LIPZ (VCE)
Name Venezia Tessera
Region Italy
Timezone Europe/Rome (UTC+2.0)
Stats Elevation 7 ft / 2 m (AMSL)
Location 45.504791° 12.349691°
Runways 2
Magnetic Variation 3.228° E

METAR

LIPZ 201350Z 12007KT 9999 FEW035 24/11 Q1015 NOSIG

Decode

TAF

TAF LIPZ 201100Z 2012/2118 12010KT 9999 SCT040 BECMG 2018/2021 03013KT BECMG 2109/2111 13008KT

Decode

Destination Runways

ID Width Length Bearing (true) Bearing (mag) Surface Threshold Offset Overrun Length
04L 148 ft / 45 m 9,112 ft / 2,777 m 42.01° 38.78° Asphalt 312 ft / 95 m 0 ft / 0 m
04R 148 ft / 45 m 10,834 ft / 3,302 m 41.99° 38.76° Asphalt 0 ft / 0 m 0 ft / 0 m
22L 148 ft / 45 m 10,834 ft / 3,302 m 222.01° 218.78° Asphalt 0 ft / 0 m 0 ft / 0 m
22R 148 ft / 45 m 9,112 ft / 2,777 m 222.02° 218.79° Asphalt 0 ft / 0 m 0 ft / 0 m

Approach Navaids

Runway Type Ident Frequency Range Bearing (true) Bearing (mag) Slope Elevation
04R Localiser VTS 109.95 MHz 18 nm / 33 km 42.02° 38.79° - 13 ft / 4 m (AMSL)
04R Glidescope VTS 109.95 MHz 10 nm / 19 km 42.00° 38.77° 3.00° 52 ft / 16 m (AMSL)
04R DME VTS 109.95 MHz 18 nm / 33 km - - - 26 ft / 8 m (AMSL)

Popular Alternatives